Time;durP1;ratioP1;P1;durP2;ratioP2;P2;SDS_P1;SDS_P2;PMS_P1;PMS_P2;Temp;Humidity;BMP_temperature;BMP_pressure;BME280_temperature;BME280_humidity;BME280_pressure;Samples;Min_cycle;Max_cycle;Signal;HPM_P1;HPM_P2
2022/09/06 00:01:44;;;;;;;2.90;2.25;;;20.20;99.70;;;;;;5098997;28;20028;-77
2022/09/06 00:04:10;;;;;;;3.20;2.20;;;20.20;99.70;;;;;;5103916;28;20028;-78
2022/09/06 00:06:35;;;;;;;2.30;2.10;;;20.10;99.50;;;;;;5100820;28;20046;-78
2022/09/06 00:09:01;;;;;;;4.78;2.20;;;20.10;99.50;;;;;;5097100;28;20020;-77
2022/09/06 00:11:27;;;;;;;3.20;2.17;;;20.10;99.40;;;;;;5097208;28;20078;-77
2022/09/06 00:13:53;;;;;;;4.93;2.67;;;20.10;99.50;;;;;;5108626;28;20035;-77
2022/09/06 00:16:22;;;;;;;5.20;2.60;;;20.10;99.60;;;;;;5103179;28;20020;-77
2022/09/06 00:18:51;;;;;;;3.75;2.78;;;20.10;99.80;;;;;;5096601;28;20028;-77
2022/09/06 00:21:28;;;;;;;3.78;3.20;;;20.10;99.90;;;;;;5094679;28;20024;-76
2022/09/06 00:23:54;;;;;;;3.42;2.38;;;20.10;99.90;;;;;;5091354;28;20032;-77
2022/09/06 00:26:21;;;;;;;3.50;2.47;;;20.10;99.90;;;;;;5094297;28;20032;-76
2022/09/06 00:28:47;;;;;;;3.33;3.03;;;20.10;99.90;;;;;;5098401;28;20016;-76
2022/09/06 00:31:16;;;;;;;3.17;2.40;;;20.10;99.90;;;;;;5093968;28;20524;-76
2022/09/06 00:33:42;;;;;;;3.25;2.15;;;20.10;99.90;;;;;;5103556;28;20031;-76
2022/09/06 00:36:09;;;;;;;2.92;2.50;;;20.10;99.90;;;;;;5104870;28;20123;-77
2022/09/06 00:38:35;;;;;;;2.55;2.17;;;20.10;99.90;;;;;;5101458;28;20024;-76
2022/09/06 00:41:02;;;;;;;2.70;2.28;;;20.10;99.90;;;;;;5094597;28;20024;-77
2022/09/06 00:43:28;;;;;;;2.45;2.25;;;20.10;99.90;;;;;;5096397;28;20019;-77
2022/09/06 00:45:54;;;;;;;6.43;2.72;;;20.10;99.90;;;;;;5105642;28;20028;-77
2022/09/06 00:48:21;;;;;;;2.63;2.35;;;20.10;99.90;;;;;;5102055;28;20367;-77
2022/09/06 00:50:51;;;;;;;3.55;2.30;;;20.10;99.90;;;;;;5109688;28;20015;-77
2022/09/06 00:53:17;;;;;;;3.38;2.55;;;20.10;99.70;;;;;;5103661;28;20493;-77
2022/09/06 00:55:44;;;;;;;3.30;2.70;;;20.20;99.70;;;;;;5095822;28;20052;-77
2022/09/06 00:58:10;;;;;;;2.40;2.03;;;20.20;99.60;;;;;;5103388;28;20516;-77
2022/09/06 01:00:35;;;;;;;2.40;2.17;;;20.20;99.50;;;;;;5111428;28;20020;-76
2022/09/06 01:03:02;;;;;;;2.72;2.42;;;20.20;99.40;;;;;;5101565;28;20039;-76
2022/09/06 01:06:03;;;;;;;2.75;2.30;;;20.20;99.40;;;;;;5111032;28;20106;-76
2022/09/06 01:08:31;;;;;;;3.10;2.33;;;20.20;99.30;;;;;;5099842;28;20030;-75
2022/09/06 01:11:13;;;;;;;7.50;2.10;;;20.20;99.10;;;;;;5099430;28;20032;-76
2022/09/06 01:13:57;;;;;;;2.23;2.03;;;20.20;99.20;;;;;;5101555;28;20093;-76
2022/09/06 01:16:43;;;;;;;2.10;1.90;;;20.20;99.10;;;;;;5105407;28;20023;-76
2022/09/06 01:19:40;;;;;;;2.13;1.92;;;20.20;99.10;;;;;;5100006;28;20185;-76
2022/09/06 01:22:05;;;;;;;5.22;2.45;;;20.20;99.10;;;;;;5100810;28;20031;-76
2022/09/06 01:24:53;;;;;;;3.45;2.35;;;20.20;99.10;;;;;;5107225;28;20030;-76
2022/09/06 01:27:42;;;;;;;2.75;2.45;;;20.20;99.30;;;;;;5097250;28;20052;-75
2022/09/06 01:30:13;;;;;;;2.67;1.95;;;20.20;99.20;;;;;;5110324;28;20024;-74
2022/09/06 01:33:00;;;;;;;2.60;2.20;;;20.20;99.20;;;;;;5100653;28;20044;-75
2022/09/06 01:35:55;;;;;;;1.88;1.77;;;20.20;99.20;;;;;;5089154;28;20067;-75
2022/09/06 01:38:21;;;;;;;2.85;2.13;;;20.20;99.20;;;;;;5110913;27;20123;-76
2022/09/06 01:40:47;;;;;;;2.85;1.77;;;20.20;99.20;;;;;;5096392;28;20094;-75
2022/09/06 01:43:21;;;;;;;2.92;1.80;;;20.20;99.20;;;;;;5106368;28;20024;-75
2022/09/06 01:46:07;;;;;;;2.50;2.13;;;20.20;99.10;;;;;;5098301;28;20020;-75
2022/09/06 01:48:51;;;;;;;5.47;2.45;;;20.20;99.20;;;;;;5101584;28;20045;-75
2022/09/06 01:51:42;;;;;;;6.13;2.35;;;20.10;99.20;;;;;;5105204;28;20028;-75
2022/09/06 01:54:44;;;;;;;2.40;2.10;;;20.20;99.20;;;;;;5099623;28;20508;-75
2022/09/06 01:57:23;;;;;;;2.55;2.10;;;20.10;99.20;;;;;;5102925;28;20030;-75
2022/09/06 02:00:08;;;;;;;2.72;2.10;;;20.10;99.20;;;;;;5096188;28;20479;-75
2022/09/06 02:02:47;;;;;;;2.72;2.53;;;20.10;99.30;;;;;;5103401;28;20025;-76
2022/09/06 02:05:33;;;;;;;2.45;2.25;;;20.10;99.30;;;;;;5077864;28;20027;-75
2022/09/06 02:08:08;;;;;;;3.13;2.15;;;20.10;99.30;;;;;;5102510;28;20085;-76
2022/09/06 02:10:48;;;;;;;2.47;2.13;;;20.10;99.40;;;;;;5104321;28;20465;-76
2022/09/06 02:13:16;;;;;;;6.43;2.47;;;20.10;99.30;;;;;;5104338;28;20043;-75
2022/09/06 02:15:48;;;;;;;2.40;2.20;;;20.10;99.40;;;;;;5093674;28;20377;-75
2022/09/06 02:18:23;;;;;;;2.17;1.98;;;20.00;99.30;;;;;;5096069;28;20038;-75
2022/09/06 02:20:53;;;;;;;3.08;2.15;;;20.00;99.30;;;;;;5107763;28;20088;-75
2022/09/06 02:23:22;;;;;;;3.10;2.05;;;20.00;99.20;;;;;;5100459;28;20173;-75
2022/09/06 02:26:06;;;;;;;3.72;2.10;;;20.00;99.20;;;;;;5108698;28;20015;-75
2022/09/06 02:28:32;;;;;;;3.20;1.90;;;20.00;99.40;;;;;;5115900;27;20366;-75
2022/09/06 02:31:02;;;;;;;2.40;2.20;;;20.00;99.40;;;;;;5105456;28;20027;-75
2022/09/06 02:33:31;;;;;;;6.53;2.30;;;20.00;99.40;;;;;;5095510;28;20035;-75
2022/09/06 02:36:07;;;;;;;2.95;1.95;;;20.00;99.40;;;;;;5097801;28;20559;-76
2022/09/06 02:38:35;;;;;;;4.25;2.05;;;19.90;99.50;;;;;;5099965;28;20028;-75
2022/09/06 02:41:01;;;;;;;3.70;2.00;;;19.90;99.70;;;;;;5102634;28;20020;-75
2022/09/06 02:43:27;;;;;;;2.88;2.17;;;19.90;99.70;;;;;;5104383;28;20032;-76
2022/09/06 02:45:53;;;;;;;3.92;1.88;;;19.80;99.80;;;;;;5095552;28;20107;-75
2022/09/06 02:48:19;;;;;;;2.70;2.00;;;19.80;99.90;;;;;;5099022;28;20478;-75
2022/09/06 02:50:46;;;;;;;4.32;2.08;;;19.70;99.90;;;;;;5107483;27;20011;-75
2022/09/06 02:53:14;;;;;;;2.60;1.90;;;19.70;99.90;;;;;;5104858;28;20040;-75
2022/09/06 02:55:40;;;;;;;2.55;1.83;;;19.60;99.90;;;;;;5096067;28;20012;-75
2022/09/06 02:58:10;;;;;;;3.13;2.08;;;19.60;99.90;;;;;;5096950;28;20028;-75
2022/09/06 03:00:37;;;;;;;2.70;2.50;;;19.60;99.90;;;;;;5109174;28;20113;-75
2022/09/06 03:03:03;;;;;;;5.18;2.63;;;19.60;99.90;;;;;;5101362;28;20073;-75
2022/09/06 03:05:29;;;;;;;2.70;2.50;;;19.60;99.90;;;;;;5108944;28;20020;-76
2022/09/06 03:07:55;;;;;;;2.75;2.35;;;19.50;99.90;;;;;;5096633;28;20036;-76
2022/09/06 03:10:22;;;;;;;2.75;2.28;;;19.50;99.90;;;;;;5102035;28;20015;-75
2022/09/06 03:12:48;;;;;;;2.47;2.22;;;19.60;99.90;;;;;;5105788;28;20039;-75
2022/09/06 03:15:15;;;;;;;2.67;1.95;;;19.50;99.90;;;;;;5092820;28;20023;-76
2022/09/06 03:17:41;;;;;;;2.45;2.08;;;19.50;99.90;;;;;;5097316;28;20035;-76
2022/09/06 03:20:08;;;;;;;5.40;2.05;;;19.50;99.90;;;;;;5107032;28;20394;-76
2022/09/06 03:22:35;;;;;;;2.72;2.00;;;19.50;99.90;;;;;;5104645;28;20134;-75
2022/09/06 03:25:01;;;;;;;4.53;2.40;;;19.50;99.90;;;;;;5093937;28;20013;-75
2022/09/06 03:27:27;;;;;;;2.75;2.10;;;19.40;99.90;;;;;;5099423;28;20035;-76
2022/09/06 03:29:52;;;;;;;4.80;1.90;;;19.40;99.90;;;;;;5107015;28;20024;-76
2022/09/06 03:32:18;;;;;;;2.53;2.03;;;19.40;99.90;;;;;;5098401;28;20043;-76
2022/09/06 03:34:44;;;;;;;2.85;1.95;;;19.50;99.90;;;;;;5101369;28;20032;-76
2022/09/06 03:37:09;;;;;;;3.42;2.13;;;19.40;99.90;;;;;;5097684;28;20052;-76
2022/09/06 03:39:35;;;;;;;2.20;1.98;;;19.40;99.90;;;;;;5105385;28;20019;-75
2022/09/06 03:42:01;;;;;;;2.70;2.15;;;19.40;99.90;;;;;;5103439;28;20111;-76
2022/09/06 03:44:27;;;;;;;3.22;2.10;;;19.40;99.90;;;;;;5097591;28;20024;-76
2022/09/06 03:46:52;;;;;;;1.80;1.70;;;19.50;99.90;;;;;;5096440;28;20027;-76
2022/09/06 03:49:37;;;;;;;2.45;2.00;;;19.50;99.90;;;;;;5096794;28;20031;-76
2022/09/06 03:52:03;;;;;;;2.38;1.90;;;19.40;99.90;;;;;;5098056;28;20028;-75
2022/09/06 03:54:29;;;;;;;25.25;2.20;;;19.40;99.90;;;;;;5097185;28;20032;-76
2022/09/06 03:56:56;;;;;;;4.13;1.95;;;19.40;99.90;;;;;;5101149;28;20024;-75
2022/09/06 03:59:22;;;;;;;3.53;2.50;;;19.40;99.90;;;;;;5098494;28;20103;-76
2022/09/06 04:01:47;;;;;;;5.32;2.33;;;19.40;99.90;;;;;;5101530;28;20148;-75
2022/09/06 04:04:13;;;;;;;2.42;1.95;;;19.40;99.90;;;;;;5100835;28;20054;-76
2022/09/06 04:06:39;;;;;;;2.50;2.30;;;19.40;99.90;;;;;;5100291;28;20027;-76
2022/09/06 04:09:04;;;;;;;3.03;2.33;;;19.40;99.90;;;;;;5091185;28;20024;-76
2022/09/06 04:11:30;;;;;;;6.20;2.40;;;19.40;99.90;;;;;;5097174;28;20722;-77
2022/09/06 04:13:56;;;;;;;2.28;2.00;;;19.30;99.90;;;;;;5100138;28;20390;-76
2022/09/06 04:16:22;;;;;;;3.90;1.90;;;19.30;99.90;;;;;;5096470;28;20035;-76
2022/09/06 04:18:47;;;;;;;3.03;2.00;;;19.30;99.90;;;;;;5101217;28;20028;-75
2022/09/06 04:21:13;;;;;;;9.25;2.63;;;19.40;99.90;;;;;;5094664;28;20024;-76
2022/09/06 04:23:39;;;;;;;2.53;2.30;;;19.40;99.90;;;;;;5103731;28;20024;-76
2022/09/06 04:26:04;;;;;;;2.38;2.15;;;19.40;99.90;;;;;;5106052;28;20026;-76
2022/09/06 04:28:30;;;;;;;3.40;2.83;;;19.40;99.90;;;;;;5104187;28;20059;-76
2022/09/06 04:30:59;;;;;;;5.15;2.42;;;19.40;99.90;;;;;;5097286;28;20020;-76
2022/09/06 04:33:25;;;;;;;3.45;2.60;;;19.40;99.90;;;;;;5098901;28;20104;-76
2022/09/06 04:35:53;;;;;;;5.78;2.58;;;19.40;99.90;;;;;;5108230;28;20036;-76
2022/09/06 04:38:18;;;;;;;2.80;2.10;;;19.40;99.90;;;;;;5103762;28;20032;-76
2022/09/06 04:40:44;;;;;;;1.88;1.70;;;19.50;99.90;;;;;;5108299;28;20020;-76
2022/09/06 04:43:10;;;;;;;1.83;1.70;;;19.50;99.90;;;;;;5104081;28;20035;-77
2022/09/06 04:45:36;;;;;;;4.80;1.98;;;19.60;99.80;;;;;;5111800;28;20074;-77
2022/09/06 04:48:02;;;;;;;4.45;2.17;;;19.60;99.80;;;;;;5108802;28;20032;-76
2022/09/06 04:50:28;;;;;;;4.38;2.13;;;19.60;99.70;;;;;;5110728;28;20122;-77
2022/09/06 04:52:54;;;;;;;4.90;2.17;;;19.60;99.50;;;;;;5107838;28;20480;-77
2022/09/06 04:55:19;;;;;;;2.88;2.30;;;19.70;99.50;;;;;;5095782;28;20069;-76
2022/09/06 04:57:45;;;;;;;3.33;2.03;;;19.70;99.50;;;;;;5099974;28;20475;-76
2022/09/06 05:00:11;;;;;;;4.55;2.50;;;19.70;99.40;;;;;;5095294;28;20099;-76
2022/09/06 05:02:37;;;;;;;6.47;2.45;;;19.70;99.30;;;;;;5105201;28;21038;-76
2022/09/06 05:05:03;;;;;;;3.47;2.47;;;19.80;99.40;;;;;;5111865;28;20076;-76
2022/09/06 05:07:29;;;;;;;4.93;2.58;;;19.80;99.40;;;;;;5108056;28;20500;-76
2022/09/06 05:09:55;;;;;;;3.22;2.25;;;19.80;99.20;;;;;;5095287;28;20024;-76
2022/09/06 05:12:21;;;;;;;6.05;2.17;;;19.90;99.20;;;;;;5107222;28;20057;-75
2022/09/06 05:14:47;;;;;;;7.68;2.50;;;19.90;99.10;;;;;;5096465;28;20020;-76
2022/09/06 05:17:13;;;;;;;2.38;2.03;;;20.00;98.90;;;;;;5101735;28;20383;-76
2022/09/06 05:19:40;;;;;;;3.10;2.17;;;20.10;98.70;;;;;;5097043;28;20311;-78
2022/09/06 05:22:05;;;;;;;6.05;2.30;;;20.10;98.70;;;;;;5101264;28;20019;-76
2022/09/06 05:24:31;;;;;;;2.08;1.88;;;20.20;98.50;;;;;;5108460;28;20035;-76
2022/09/06 05:26:57;;;;;;;2.92;1.92;;;20.20;98.50;;;;;;5104563;28;20024;-79
2022/09/06 05:29:23;;;;;;;1.92;1.80;;;20.20;98.40;;;;;;5100459;28;20386;-78
2022/09/06 05:31:49;;;;;;;3.33;1.83;;;20.30;98.80;;;;;;5104082;28;20020;-78
2022/09/06 05:34:15;;;;;;;3.45;2.05;;;20.30;98.30;;;;;;5105725;28;20096;-78
2022/09/06 05:36:40;;;;;;;2.20;2.00;;;20.40;98.30;;;;;;5105910;28;20044;-77
2022/09/06 05:39:06;;;;;;;2.03;1.83;;;20.40;98.30;;;;;;5101159;28;20024;-77
2022/09/06 05:41:32;;;;;;;2.85;2.25;;;20.50;98.20;;;;;;5100312;28;20015;-78
2022/09/06 05:43:58;;;;;;;2.75;2.42;;;20.50;98.20;;;;;;5102542;28;20028;-77
2022/09/06 05:46:25;;;;;;;4.05;2.30;;;20.50;98.10;;;;;;5098938;28;20031;-76
2022/09/06 05:49:06;;;;;;;3.50;2.30;;;20.60;98.00;;;;;;5102025;28;20035;-77
2022/09/06 05:51:32;;;;;;;4.93;2.30;;;20.70;97.90;;;;;;5100393;28;20023;-76
2022/09/06 05:53:58;;;;;;;2.10;1.90;;;20.70;97.70;;;;;;5100422;28;20089;-76
2022/09/06 05:56:24;;;;;;;3.47;2.15;;;20.80;97.70;;;;;;5098288;28;20027;-75
2022/09/06 05:58:50;;;;;;;3.03;1.88;;;20.80;97.60;;;;;;5104587;28;20054;-75
2022/09/06 06:01:19;;;;;;;2.78;2.40;;;20.90;97.50;;;;;;5106613;28;20597;-74
2022/09/06 06:04:03;;;;;;;7.55;2.13;;;21.00;97.50;;;;;;5098247;28;20086;-75
2022/09/06 06:06:31;;;;;;;6.60;1.80;;;21.00;97.50;;;;;;5098503;28;20035;-76
2022/09/06 06:08:57;;;;;;;3.33;2.30;;;21.00;97.20;;;;;;5093133;28;20020;-76
2022/09/06 06:11:24;;;;;;;4.03;2.13;;;21.10;97.10;;;;;;5095968;28;20044;-79
2022/09/06 06:13:51;;;;;;;3.90;1.92;;;21.20;97.30;;;;;;5095379;28;20050;-78
2022/09/06 06:16:19;;;;;;;2.85;2.03;;;21.30;97.00;;;;;;5097503;28;20023;-79
2022/09/06 06:18:45;;;;;;;6.90;2.25;;;21.30;96.90;;;;;;5093025;28;20108;-78
2022/09/06 06:21:31;;;;;;;3.58;2.03;;;21.40;96.90;;;;;;5098476;28;20023;-77
2022/09/06 06:24:00;;;;;;;4.00;2.05;;;21.50;96.90;;;;;;5111311;27;20031;-78
2022/09/06 06:26:28;;;;;;;4.97;2.00;;;21.50;96.80;;;;;;5094491;28;20046;-78
2022/09/06 06:28:56;;;;;;;3.78;1.88;;;21.60;96.90;;;;;;5089797;28;20067;-77
2022/09/06 06:31:22;;;;;;;4.18;2.05;;;21.70;96.70;;;;;;5094584;28;20544;-78
2022/09/06 06:33:49;;;;;;;5.05;1.67;;;21.80;96.70;;;;;;5097621;28;20024;-76
2022/09/06 06:36:14;;;;;;;5.18;2.15;;;21.90;96.60;;;;;;5092521;28;20485;-76
2022/09/06 06:38:42;;;;;;;2.92;2.03;;;21.90;96.60;;;;;;5090191;28;20024;-74
2022/09/06 06:41:10;;;;;;;2.80;1.95;;;22.00;96.30;;;;;;5092751;28;20490;-75
2022/09/06 06:43:36;;;;;;;3.47;1.90;;;22.10;96.30;;;;;;5095140;28;20540;-75
2022/09/06 06:46:16;;;;;;;5.15;2.10;;;22.10;96.20;;;;;;5094492;28;20024;-75
2022/09/06 06:48:44;;;;;;;8.60;2.08;;;22.20;96.20;;;;;;5091440;28;20029;-75
2022/09/06 06:51:12;;;;;;;7.97;2.20;;;22.20;96.10;;;;;;5095602;28;20023;-78
2022/09/06 06:53:37;;;;;;;2.85;1.80;;;22.30;96.10;;;;;;5090036;28;20035;-78
2022/09/06 06:56:34;;;;;;;4.75;2.30;;;22.40;96.00;;;;;;5093967;28;20020;-77
2022/09/06 06:59:02;;;;;;;6.03;2.00;;;22.40;96.10;;;;;;5080901;28;20648;-77
2022/09/06 07:01:30;;;;;;;4.20;2.45;;;22.50;95.80;;;;;;5096159;28;20081;-81
2022/09/06 07:03:56;;;;;;;4.07;2.17;;;22.60;95.90;;;;;;5093936;28;20040;-78
2022/09/06 07:06:23;;;;;;;3.13;2.25;;;22.70;95.90;;;;;;5094418;28;20024;-84
2022/09/06 07:08:49;;;;;;;4.10;2.13;;;22.70;95.90;;;;;;5091571;28;20008;-84
2022/09/06 07:11:16;;;;;;;5.40;1.88;;;22.70;95.70;;;;;;5098171;28;20043;-80
2022/09/06 07:13:42;;;;;;;4.32;1.90;;;22.90;95.60;;;;;;5095821;28;20027;-77
2022/09/06 07:16:09;;;;;;;2.10;1.85;;;22.90;95.20;;;;;;5093389;28;20046;-75
2022/09/06 07:18:40;;;;;;;3.22;2.00;;;23.00;94.80;;;;;;5095390;28;20024;-76
2022/09/06 07:21:16;;;;;;;4.03;1.83;;;23.10;94.50;;;;;;5093849;28;20023;-78
2022/09/06 07:23:43;;;;;;;5.68;1.80;;;23.20;94.60;;;;;;5092934;28;20028;-76
2022/09/06 07:26:23;;;;;;;3.75;1.80;;;23.30;93.40;;;;;;5092970;28;20016;-74
2022/09/06 07:29:03;;;;;;;3.10;1.40;;;23.40;93.10;;;;;;5091756;28;20027;-82
2022/09/06 07:31:30;;;;;;;5.43;2.00;;;23.50;93.00;;;;;;5097862;28;20020;-83
2022/09/06 07:33:56;;;;;;;3.88;2.22;;;23.60;93.40;;;;;;5100867;28;20097;-81
2022/09/06 07:36:22;;;;;;;10.75;3.05;;;23.60;93.20;;;;;;5094335;28;20452;-79
2022/09/06 07:38:49;;;;;;;13.05;3.00;;;23.70;93.10;;;;;;5092019;28;20103;-83
2022/09/06 07:41:17;;;;;;;7.43;2.97;;;23.80;92.80;;;;;;5093983;28;20105;-81
2022/09/06 07:43:43;;;;;;;6.05;2.55;;;23.80;92.90;;;;;;5089863;28;20043;-85
2022/09/06 07:46:14;;;;;;;6.88;2.95;;;23.80;92.90;;;;;;5092257;28;20612;-77
2022/09/06 07:48:41;;;;;;;6.60;3.17;;;23.90;92.90;;;;;;5092422;28;20026;-83
2022/09/06 07:51:12;;;;;;;9.05;2.88;;;23.90;92.70;;;;;;5092706;28;20507;-77
2022/09/06 07:53:40;;;;;;;22.63;3.83;;;24.00;93.30;;;;;;5090871;28;20040;-76
2022/09/06 07:56:08;;;;;;;18.17;3.25;;;24.10;92.80;;;;;;5088016;28;20062;-76
2022/09/06 07:58:35;;;;;;;15.07;3.13;;;24.20;93.10;;;;;;5092756;28;20031;-75
2022/09/06 08:01:29;;;;;;;15.30;2.67;;;24.30;92.90;;;;;;5094090;28;20032;-75
2022/09/06 08:04:01;;;;;;;25.65;3.38;;;24.30;92.60;;;;;;5092915;28;20020;-77
2022/09/06 08:06:29;;;;;;;23.30;4.20;;;24.40;92.80;;;;;;5099182;28;20428;-77
2022/09/06 08:08:56;;;;;;;21.30;3.47;;;24.30;93.20;;;;;;5091657;28;20027;-78
2022/09/06 08:11:24;;;;;;;13.35;2.80;;;24.40;93.10;;;;;;5097001;28;20024;-78
2022/09/06 08:13:51;;;;;;;12.10;2.50;;;24.40;92.80;;;;;;5092910;28;20040;-78
2022/09/06 08:16:18;;;;;;;16.85;2.85;;;24.40;93.20;;;;;;5092792;28;20028;-77
2022/09/06 08:18:44;;;;;;;12.18;3.00;;;24.40;92.70;;;;;;5091326;28;20115;-75
2022/09/06 08:21:13;;;;;;;13.35;2.20;;;24.40;92.70;;;;;;5095203;28;20102;-76
2022/09/06 08:23:43;;;;;;;4.78;2.05;;;24.40;92.90;;;;;;5090045;28;20047;-77
2022/09/06 08:26:09;;;;;;;6.72;2.47;;;24.40;92.10;;;;;;5095106;28;20024;-75
2022/09/06 08:28:35;;;;;;;8.25;2.10;;;24.40;92.40;;;;;;5091158;28;20032;-76
2022/09/06 08:31:05;;;;;;;8.98;2.72;;;24.40;92.50;;;;;;5095158;28;20027;-75
2022/09/06 08:33:31;;;;;;;7.22;3.00;;;24.50;92.90;;;;;;5091530;28;20097;-76
2022/09/06 08:35:57;;;;;;;6.80;2.50;;;24.50;93.10;;;;;;5092369;28;20429;-78
2022/09/06 08:38:24;;;;;;;4.53;2.42;;;24.60;93.40;;;;;;5091980;28;20046;-75
2022/09/06 08:40:51;;;;;;;11.80;2.50;;;24.70;92.90;;;;;;5092132;28;20069;-75
2022/09/06 08:43:19;;;;;;;12.93;2.92;;;24.80;93.10;;;;;;5097317;28;20058;-75
2022/09/06 08:45:49;;;;;;;15.75;2.80;;;24.90;92.90;;;;;;5091590;28;20085;-75
2022/09/06 08:48:15;;;;;;;10.90;2.88;;;25.00;93.10;;;;;;5095956;28;20085;-76
2022/09/06 08:50:51;;;;;;;9.25;2.40;;;25.00;92.90;;;;;;5090883;28;20667;-75
2022/09/06 08:53:18;;;;;;;8.95;2.72;;;25.00;91.70;;;;;;5092646;28;20085;-75
2022/09/06 08:56:24;;;;;;;14.20;2.97;;;25.00;92.60;;;;;;5089384;28;20363;-76
2022/09/06 08:59:01;;;;;;;11.75;3.08;;;24.90;92.60;;;;;;5010644;28;20058;-75
2022/09/06 09:01:36;;;;;;;12.82;2.95;;;25.00;92.60;;;;;;5083492;28;20044;-75
2022/09/06 09:04:06;;;;;;;6.55;2.00;;;24.90;92.10;;;;;;5091954;28;20027;-76
2022/09/06 09:06:32;;;;;;;8.15;2.40;;;24.90;92.00;;;;;;5093941;28;20039;-76
2022/09/06 09:09:13;;;;;;;3.90;2.00;;;24.90;92.90;;;;;;5096248;28;20115;-77
2022/09/06 09:11:42;;;;;;;4.53;2.28;;;24.90;91.50;;;;;;5096319;28;20034;-76
2022/09/06 09:14:21;;;;;;;9.35;2.65;;;25.00;92.20;;;;;;5096157;28;20489;-75
2022/09/06 09:16:51;;;;;;;9.43;2.58;;;25.10;92.10;;;;;;5101240;28;20095;-76
2022/09/06 09:19:17;;;;;;;7.43;3.10;;;25.20;92.30;;;;;;5095196;28;20024;-76
2022/09/06 09:21:43;;;;;;;6.15;2.42;;;25.30;92.10;;;;;;5099413;28;20523;-77
2022/09/06 09:24:11;;;;;;;7.20;2.15;;;25.30;92.20;;;;;;5094029;28;20036;-76
2022/09/06 09:27:02;;;;;;;4.97;2.17;;;25.30;92.00;;;;;;5095824;28;20016;-75
2022/09/06 09:29:28;;;;;;;6.72;2.40;;;25.40;92.40;;;;;;5091796;28;20075;-78
2022/09/06 09:31:55;;;;;;;7.68;2.33;;;25.40;92.40;;;;;;5097289;28;20494;-75
2022/09/06 09:34:32;;;;;;;3.83;2.28;;;25.50;92.50;;;;;;5090002;28;20032;-74
2022/09/06 09:37:24;;;;;;;2.85;1.85;;;25.50;92.20;;;;;;5100182;28;20124;-75
2022/09/06 09:39:53;;;;;;;3.38;2.10;;;25.60;91.90;;;;;;5090904;28;20069;-75
2022/09/06 09:42:38;;;;;;;5.70;2.15;;;25.60;91.80;;;;;;5100017;28;20035;-75
2022/09/06 09:45:21;;;;;;;4.88;2.30;;;25.70;92.60;;;;;;5092498;28;20073;-76
2022/09/06 09:47:47;;;;;;;4.38;1.90;;;25.90;92.20;;;;;;5097156;28;20020;-75
2022/09/06 09:50:33;;;;;;;4.78;2.10;;;25.90;90.90;;;;;;5091592;28;20569;-75
2022/09/06 09:53:10;;;;;;;17.90;3.28;;;26.00;91.30;;;;;;5106417;28;20073;-75
2022/09/06 09:55:37;;;;;;;13.68;2.78;;;26.10;92.40;;;;;;5094316;28;20028;-75
2022/09/06 09:58:04;;;;;;;20.90;3.10;;;26.20;91.00;;;;;;5095055;28;20054;-75
2022/09/06 10:00:41;;;;;;;16.25;3.35;;;26.30;91.40;;;;;;5106319;28;20557;-76
2022/09/06 10:03:24;;;;;;;11.20;2.92;;;26.30;92.40;;;;;;5105334;28;20032;-75
2022/09/06 10:05:59;;;;;;;6.60;2.70;;;26.40;92.20;;;;;;5107457;27;20020;-77
2022/09/06 10:08:29;;;;;;;12.38;2.55;;;26.30;91.70;;;;;;5100847;28;20035;-75
2022/09/06 10:10:56;;;;;;;9.32;2.42;;;26.30;92.20;;;;;;5095597;28;20034;-76
2022/09/06 10:13:31;;;;;;;7.72;2.38;;;26.20;92.20;;;;;;5101753;28;20024;-76
2022/09/06 10:15:59;;;;;;;3.45;2.45;;;26.20;91.60;;;;;;5094969;28;20058;-76
2022/09/06 10:18:43;;;;;;;4.07;2.08;;;26.20;91.30;;;;;;5104633;28;20027;-75
2022/09/06 10:21:22;;;;;;;3.13;2.10;;;26.30;91.70;;;;;;5095274;28;20019;-75
2022/09/06 10:24:20;;;;;;;3.70;1.70;;;26.40;91.10;;;;;;5094925;28;20026;-75
2022/09/06 10:26:45;;;;;;;7.03;2.40;;;26.50;90.70;;;;;;5099522;28;20467;-77
2022/09/06 10:29:13;;;;;;;3.80;1.98;;;26.40;91.10;;;;;;5105523;28;20106;-75
2022/09/06 10:31:38;;;;;;;7.00;2.40;;;26.40;90.90;;;;;;5102538;28;20051;-76
2022/09/06 10:34:16;;;;;;;7.00;2.10;;;26.30;91.40;;;;;;5104406;28;20070;-77
2022/09/06 10:36:54;;;;;;;4.65;2.53;;;26.20;92.20;;;;;;5104564;28;20130;-75
2022/09/06 10:39:42;;;;;;;7.22;2.42;;;26.20;92.60;;;;;;5098078;28;20030;-75
2022/09/06 10:42:07;;;;;;;8.50;2.60;;;26.20;92.60;;;;;;5102948;28;20513;-75
2022/09/06 10:44:54;;;;;;;5.53;2.42;;;26.10;92.40;;;;;;5098063;28;20032;-75
2022/09/06 10:47:25;;;;;;;2.78;2.55;;;26.00;92.70;;;;;;5102954;28;20042;-76
2022/09/06 10:49:55;;;;;;;5.18;2.55;;;26.00;93.50;;;;;;5093950;28;20294;-77
2022/09/06 10:52:26;;;;;;;6.97;2.70;;;25.90;94.10;;;;;;5097692;28;20032;-77
2022/09/06 10:55:00;;;;;;;4.50;2.63;;;25.70;95.80;;;;;;5108538;28;20019;-77
2022/09/06 10:57:54;;;;;;;4.10;2.40;;;25.60;96.10;;;;;;5102657;28;20027;-76
2022/09/06 11:00:20;;;;;;;7.88;2.60;;;25.70;95.70;;;;;;5076743;28;20482;-76
2022/09/06 11:03:05;;;;;;;3.97;2.42;;;25.80;96.50;;;;;;5100660;28;20034;-75
2022/09/06 11:05:39;;;;;;;3.78;2.65;;;26.00;96.20;;;;;;5081270;28;20386;-76
2022/09/06 11:08:17;;;;;;;2.40;2.20;;;26.20;95.90;;;;;;5099632;28;20367;-76
2022/09/06 11:10:48;;;;;;;5.60;2.05;;;26.40;92.30;;;;;;5107928;28;20099;-76
2022/09/06 11:13:21;;;;;;;4.17;2.20;;;26.60;93.00;;;;;;5099596;28;20037;-76
2022/09/06 11:16:02;;;;;;;7.80;1.75;;;26.80;93.50;;;;;;5106391;28;20027;-75
2022/09/06 11:18:31;;;;;;;2.80;2.28;;;27.00;91.80;;;;;;5102104;28;20027;-75
2022/09/06 11:21:11;;;;;;;5.50;2.45;;;27.00;92.50;;;;;;5105075;28;20038;-75
2022/09/06 11:24:13;;;;;;;6.65;2.30;;;27.10;93.00;;;;;;5096447;28;20028;-76
2022/09/06 11:27:01;;;;;;;5.53;2.70;;;27.10;93.70;;;;;;5017063;28;20032;-75
2022/09/06 11:29:29;;;;;;;9.93;2.28;;;27.20;94.00;;;;;;5093560;28;20540;-75
2022/09/06 11:31:57;;;;;;;12.27;2.20;;;27.10;93.50;;;;;;5101974;28;20030;-76
2022/09/06 11:34:27;;;;;;;5.32;2.60;;;27.10;92.40;;;;;;5104943;28;20065;-76
2022/09/06 11:37:06;;;;;;;9.35;2.60;;;27.10;94.00;;;;;;5094564;28;20371;-76
2022/09/06 11:39:41;;;;;;;8.93;2.70;;;27.10;93.80;;;;;;5088110;28;20149;-75
2022/09/06 11:42:49;;;;;;;17.55;3.33;;;27.30;94.20;;;;;;5098490;28;20382;-75
2022/09/06 11:45:38;;;;;;;4.32;2.50;;;27.30;93.70;;;;;;5083358;28;20481;-75
2022/09/06 11:48:22;;;;;;;13.73;3.63;;;27.30;93.10;;;;;;5095325;28;20433;-75
2022/09/06 11:51:00;;;;;;;8.73;2.67;;;27.40;93.60;;;;;;5092395;28;20028;-75
2022/09/06 11:53:35;;;;;;;5.07;2.85;;;27.40;93.20;;;;;;5096388;28;20028;-74
2022/09/06 11:56:00;;;;;;;6.80;2.63;;;27.40;94.10;;;;;;5092339;28;20491;-76
2022/09/06 11:58:45;;;;;;;5.90;2.70;;;27.40;92.00;;;;;;5097906;28;20032;-75
2022/09/06 12:01:17;;;;;;;3.22;2.22;;;27.40;93.70;;;;;;5093637;28;20043;-75
2022/09/06 12:03:52;;;;;;;4.10;2.00;;;27.40;92.20;;;;;;5091616;28;20099;-75
2022/09/06 12:06:40;;;;;;;4.65;2.30;;;27.60;91.80;;;;;;5093126;28;20035;-76
2022/09/06 12:09:32;;;;;;;4.32;2.22;;;27.80;91.10;;;;;;5094448;28;20031;-77
2022/09/06 12:11:59;;;;;;;3.65;2.40;;;29.00;90.00;;;;;;5094927;28;20113;-78
2022/09/06 12:14:31;;;;;;;4.07;1.50;;;30.40;87.00;;;;;;5093679;28;20028;-75
2022/09/06 12:16:56;;;;;;;3.85;2.00;;;31.50;81.90;;;;;;5093777;28;20036;-76
2022/09/06 12:19:47;;;;;;;2.95;1.55;;;32.60;78.20;;;;;;5093934;28;20016;-76
2022/09/06 12:22:39;;;;;;;4.20;1.50;;;33.50;78.10;;;;;;5101054;28;20020;-76
2022/09/06 12:25:16;;;;;;;8.55;1.80;;;34.30;74.90;;;;;;5091076;28;20039;-77
2022/09/06 12:27:57;;;;;;;9.15;1.83;;;35.20;73.90;;;;;;5097466;28;20024;-76
2022/09/06 12:30:49;;;;;;;11.00;1.80;;;35.90;71.40;;;;;;5090461;28;20070;-78
2022/09/06 12:33:15;;;;;;;9.35;1.65;;;36.20;71.10;;;;;;5094909;28;20436;-76
2022/09/06 12:35:41;;;;;;;4.30;1.48;;;36.50;69.70;;;;;;5090002;28;20051;-76
2022/09/06 12:38:14;;;;;;;40.75;3.90;;;36.60;68.20;;;;;;5097653;28;20058;-76
2022/09/06 12:40:46;;;;;;;17.95;2.25;;;37.10;68.40;;;;;;5090320;28;20057;-77
2022/09/06 12:43:15;;;;;;;12.02;1.90;;;37.50;66.10;;;;;;5099471;28;20049;-76
2022/09/06 12:45:47;;;;;;;2.92;1.30;;;37.80;63.70;;;;;;5097174;28;20016;-77
2022/09/06 12:48:24;;;;;;;;;;;38.00;61.50;;;;;;5100079;28;20030;-76
2022/09/06 12:51:03;;;;;;;9.93;1.88;;;38.20;60.40;;;;;;5094754;28;19904;-77
2022/09/06 12:53:30;;;;;;;7.78;1.83;;;38.50;61.10;;;;;;5093294;28;20039;-79
2022/09/06 12:56:08;;;;;;;14.15;2.08;;;38.80;60.00;;;;;;5097795;28;20032;-76
2022/09/06 12:58:35;;;;;;;5.93;1.40;;;38.80;58.80;;;;;;5094062;28;20028;-77
2022/09/06 13:01:15;;;;;;;7.97;1.63;;;38.40;58.80;;;;;;5096633;28;20020;-77
2022/09/06 13:03:45;;;;;;;4.97;1.25;;;37.90;60.10;;;;;;5097165;28;20030;-77
2022/09/06 13:06:20;;;;;;;5.85;1.40;;;37.40;60.80;;;;;;5098378;28;20031;-77
2022/09/06 13:08:51;;;;;;;6.53;1.80;;;37.50;61.10;;;;;;5093564;28;20016;-77